createdAt,value
2023-02-05T00:00:38.541Z,4.47
2023-02-05T00:01:38.723Z,4.47
2023-02-05T00:02:39.386Z,4.47
2023-02-05T00:03:39.496Z,4.47
2023-02-05T00:04:39.647Z,4.47
2023-02-05T00:05:39.966Z,4.47
2023-02-05T00:06:40.663Z,4.47
2023-02-05T00:06:51.463Z,4.40
2023-02-05T00:07:51.871Z,4.40
2023-02-05T00:08:52.365Z,4.40
2023-02-05T00:09:53.237Z,4.40
2023-02-05T00:10:53.352Z,4.40
2023-02-05T00:11:54.789Z,4.40
2023-02-05T00:12:54.568Z,4.40
2023-02-05T00:13:55.407Z,4.40
2023-02-05T00:14:56.433Z,4.41
2023-02-05T00:15:56.989Z,4.41
2023-02-05T00:16:58.969Z,4.42
2023-02-05T00:17:58.435Z,4.42
2023-02-05T00:18:59.357Z,4.43
2023-02-05T00:20:00.107Z,4.43
2023-02-05T00:21:00.630Z,4.44
2023-02-05T00:22:01.069Z,4.44
2023-02-05T00:23:01.382Z,4.45
2023-02-05T00:24:01.612Z,4.45
2023-02-05T00:25:01.954Z,4.46
2023-02-05T00:26:02.912Z,4.47
2023-02-05T00:27:11.545Z,4.47
2023-02-05T00:28:03.709Z,4.48
2023-02-05T00:29:04.548Z,4.48
2023-02-05T00:29:13.913Z,4.64
2023-02-05T00:30:13.373Z,4.64
2023-02-05T00:32:17.160Z,4.64
2023-02-05T00:33:17.236Z,4.64
2023-02-05T00:34:17.294Z,4.63
2023-02-05T00:35:17.277Z,4.63
2023-02-05T00:36:17.673Z,4.64
2023-02-05T00:37:27.130Z,4.64
2023-02-05T00:39:01.373Z,4.69
2023-02-05T00:39:52.364Z,4.69
2023-02-05T00:40:53.408Z,4.68
2023-02-05T00:41:53.670Z,4.68
2023-02-05T00:42:56.310Z,4.68
2023-02-05T00:43:54.136Z,4.68
2023-02-05T00:44:55.786Z,4.68
2023-02-05T00:45:56.817Z,4.68
2023-02-05T00:46:55.753Z,4.68
2023-02-05T00:47:55.807Z,4.68
2023-02-05T00:48:56.428Z,4.68
2023-02-05T00:49:56.765Z,4.67
2023-02-05T00:50:57.277Z,4.67
2023-02-05T00:51:57.346Z,4.67
2023-02-05T00:53:01.225Z,4.68
2023-02-05T00:54:00.375Z,4.68
2023-02-05T00:55:01.264Z,4.68
2023-02-05T00:56:00.336Z,4.68
2023-02-05T00:57:01.045Z,4.68
2023-02-05T00:58:00.706Z,4.68
2023-02-05T00:59:01.612Z,4.68
2023-02-05T01:00:02.316Z,4.68
2023-02-05T01:01:02.852Z,4.68
2023-02-05T01:02:03.278Z,4.68
2023-02-05T01:03:03.318Z,4.68
2023-02-05T01:04:03.479Z,4.67
2023-02-05T01:04:44.682Z,4.64
2023-02-05T01:05:44.789Z,4.64
2023-02-05T01:06:43.842Z,4.64
2023-02-05T01:07:44.406Z,4.64
2023-02-05T01:08:44.469Z,4.64
2023-02-05T01:09:44.473Z,4.64
2023-02-05T01:10:45.300Z,4.63
2023-02-05T01:11:45.601Z,4.63
2023-02-05T01:12:46.355Z,4.62
2023-02-05T01:13:48.599Z,4.62
2023-02-05T01:14:47.889Z,4.62
2023-02-05T01:15:48.819Z,4.62
2023-02-05T01:16:52.659Z,4.62
2023-02-05T01:17:51.316Z,4.62
2023-02-05T01:18:51.286Z,4.61
2023-02-05T01:19:51.565Z,4.61
2023-02-05T01:20:51.988Z,4.61
2023-02-05T01:21:52.280Z,4.62
2023-02-05T01:22:53.275Z,4.62
2023-02-05T01:23:54.238Z,4.62
2023-02-05T01:24:54.458Z,4.62
2023-02-05T01:25:55.084Z,4.62
2023-02-05T01:26:56.028Z,4.61
2023-02-05T01:27:59.106Z,4.61
2023-02-05T01:28:56.721Z,4.61
2023-02-05T01:29:56.697Z,4.61
2023-02-05T01:30:57.500Z,4.61
2023-02-05T01:31:58.436Z,4.61
2023-02-05T01:32:59.193Z,4.61
2023-02-05T01:34:03.716Z,4.62
2023-02-05T01:35:00.974Z,4.62
2023-02-05T01:36:01.031Z,4.62
2023-02-05T01:37:01.307Z,4.62
2023-02-05T01:38:01.430Z,4.62
2023-02-05T01:38:12.597Z,4.65
2023-02-05T01:39:11.701Z,4.65
2023-02-05T01:40:11.972Z,4.65
2023-02-05T01:41:12.857Z,4.64
2023-02-05T01:42:13.414Z,4.64
2023-02-05T01:43:13.902Z,4.64
2023-02-05T01:44:14.915Z,4.65
2023-02-05T01:45:14.924Z,4.65
2023-02-05T01:46:15.310Z,4.65
2023-02-05T01:47:15.309Z,4.65
2023-02-05T01:48:16.218Z,4.64
2023-02-05T01:49:16.267Z,4.64
2023-02-05T01:50:16.579Z,4.64
2023-02-05T01:51:16.890Z,4.64
2023-02-05T01:52:16.941Z,4.64
2023-02-05T01:53:17.951Z,4.64
2023-02-05T01:54:18.315Z,4.63
2023-02-05T01:55:18.957Z,4.63
2023-02-05T01:56:19.882Z,4.63
2023-02-05T01:57:20.641Z,4.63
2023-02-05T01:58:21.050Z,4.63
2023-02-05T01:59:21.924Z,4.63
2023-02-05T02:00:22.698Z,4.63
2023-02-05T02:01:22.927Z,4.63
2023-02-05T02:02:22.813Z,4.63
2023-02-05T02:03:22.980Z,4.63
2023-02-05T02:04:23.925Z,4.63
2023-02-05T02:05:24.906Z,4.63
2023-02-05T02:06:25.589Z,4.63
2023-02-05T02:07:26.467Z,4.63
2023-02-05T02:08:27.257Z,4.63
2023-02-05T02:09:28.083Z,4.63
2023-02-05T02:10:28.990Z,4.63
2023-02-05T02:11:29.356Z,4.63
2023-02-05T02:12:29.617Z,4.62
2023-02-05T02:13:30.545Z,4.62
2023-02-05T02:14:31.370Z,4.62
2023-02-05T02:14:40.509Z,4.61
2023-02-05T02:15:41.354Z,4.60
2023-02-05T02:16:42.201Z,4.60
2023-02-05T02:17:42.943Z,4.60
2023-02-05T02:18:43.896Z,4.61
2023-02-05T02:19:44.828Z,4.61
2023-02-05T02:20:44.873Z,4.61
2023-02-05T02:21:44.933Z,4.61
2023-02-05T02:22:45.662Z,4.61
2023-02-05T02:23:45.855Z,4.62
2023-02-05T02:24:46.026Z,4.62
2023-02-05T02:25:46.756Z,4.62
2023-02-05T02:26:47.138Z,4.62
2023-02-05T02:27:47.965Z,4.62
2023-02-05T02:28:48.837Z,4.63
2023-02-05T02:29:49.727Z,4.63
2023-02-05T02:30:50.540Z,4.63
2023-02-05T02:31:51.491Z,4.63
2023-02-05T02:32:52.274Z,4.63
2023-02-05T02:33:52.622Z,4.63
2023-02-05T02:34:53.386Z,4.64
2023-02-05T02:35:54.346Z,4.64
2023-02-05T02:36:55.346Z,4.64
2023-02-05T02:37:55.580Z,4.65
2023-02-05T02:38:56.356Z,4.65
2023-02-05T02:39:56.498Z,4.65
2023-02-05T02:40:56.604Z,4.65
2023-02-05T02:41:57.620Z,4.65
2023-02-05T02:42:57.710Z,4.65
2023-02-05T02:43:57.987Z,4.65
2023-02-05T02:44:58.181Z,4.65
2023-02-05T02:45:58.343Z,4.66
2023-02-05T02:46:59.318Z,4.66
2023-02-05T02:47:59.566Z,4.66
2023-02-05T02:48:08.750Z,4.65
2023-02-05T02:49:08.878Z,4.65
2023-02-05T02:50:09.271Z,4.65
2023-02-05T02:51:09.425Z,4.65
2023-02-05T02:52:10.370Z,4.65
2023-02-05T02:53:10.891Z,4.65
2023-02-05T02:54:11.757Z,4.65
2023-02-05T02:55:12.684Z,4.65
2023-02-05T02:56:12.771Z,4.65
2023-02-05T02:57:13.771Z,4.65
2023-02-05T02:58:14.167Z,4.65
2023-02-05T02:59:14.312Z,4.64
2023-02-05T03:00:14.473Z,4.64
2023-02-05T03:01:14.835Z,4.64
2023-02-05T03:02:14.845Z,4.64
2023-02-05T03:03:14.989Z,4.64
2023-02-05T03:04:16.439Z,4.64
2023-02-05T03:05:15.655Z,4.65
2023-02-05T03:06:16.517Z,4.64
2023-02-05T03:07:16.583Z,4.64
2023-02-05T03:08:17.335Z,4.64
2023-02-05T03:09:18.110Z,4.64
2023-02-05T03:10:19.029Z,4.64
2023-02-05T03:11:19.151Z,4.64
2023-02-05T03:12:19.195Z,4.64
2023-02-05T03:13:20.130Z,4.64
2023-02-05T03:14:20.929Z,4.64
2023-02-05T03:15:21.812Z,4.64
2023-02-05T03:16:22.004Z,4.63
2023-02-05T03:17:22.841Z,4.63
2023-02-05T03:18:23.377Z,4.63
2023-02-05T03:18:35.030Z,4.62
2023-02-05T03:19:35.869Z,4.61
2023-02-05T03:20:36.726Z,4.61
2023-02-05T03:21:37.036Z,4.61
2023-02-05T03:22:37.106Z,4.61
2023-02-05T03:23:37.216Z,4.60
2023-02-05T03:24:37.413Z,4.59
2023-02-05T03:25:38.164Z,4.58
2023-02-05T03:26:38.447Z,4.57
2023-02-05T03:27:38.666Z,4.56
2023-02-05T03:28:39.578Z,4.54
2023-02-05T03:29:40.402Z,4.53
2023-02-05T05:05:39.063Z,4.79
2023-02-05T05:06:39.793Z,4.79
2023-02-05T05:07:39.833Z,4.79
2023-02-05T05:08:40.400Z,4.79
2023-02-05T05:09:41.390Z,4.79
2023-02-05T05:10:42.074Z,4.79
2023-02-05T05:11:42.959Z,4.79
2023-02-05T05:12:43.159Z,4.78
2023-02-05T05:13:44.177Z,4.78
2023-02-05T05:14:44.412Z,4.78
2023-02-05T05:15:44.795Z,4.78
2023-02-05T05:16:45.478Z,4.77
2023-02-05T05:17:45.562Z,4.77
2023-02-05T05:18:46.334Z,4.77
2023-02-05T05:19:46.884Z,4.76
2023-02-05T05:20:47.750Z,4.76
2023-02-05T05:21:48.358Z,4.75
2023-02-05T05:22:48.936Z,4.75
2023-02-05T05:23:49.739Z,4.74
2023-02-05T05:24:50.506Z,4.74
2023-02-05T05:25:50.575Z,4.74
2023-02-05T05:26:51.266Z,4.74
2023-02-05T05:27:52.094Z,4.74
2023-02-05T05:28:52.488Z,4.74
2023-02-05T05:29:53.299Z,4.74
2023-02-05T05:30:53.873Z,4.74
2023-02-05T05:31:54.022Z,4.73
2023-02-05T05:32:54.379Z,4.73
2023-02-05T05:33:54.387Z,4.74
2023-02-05T05:34:54.569Z,4.74
2023-02-05T05:35:55.283Z,4.74
2023-02-05T05:36:56.056Z,4.75
2023-02-05T05:37:56.523Z,4.75
2023-02-05T05:38:57.216Z,4.75
2023-02-05T05:39:57.790Z,4.75
2023-02-05T05:40:06.538Z,4.80
2023-02-05T05:41:07.331Z,4.80
2023-02-05T05:42:07.978Z,4.80
2023-02-05T05:43:08.383Z,4.80
2023-02-05T05:44:08.707Z,4.79
2023-02-05T05:45:09.691Z,4.79
2023-02-05T05:46:09.956Z,4.79
2023-02-05T05:47:10.594Z,4.79
2023-02-05T05:48:11.324Z,4.80
2023-02-05T05:49:11.572Z,4.80
2023-02-05T05:50:12.124Z,4.79
2023-02-05T05:51:12.476Z,4.79
2023-02-05T05:52:13.399Z,4.79
2023-02-05T05:53:13.448Z,4.79
2023-02-05T05:54:13.614Z,4.79
2023-02-05T05:55:14.240Z,4.79
2023-02-05T05:56:15.078Z,4.79
2023-02-05T05:57:15.852Z,4.79
2023-02-05T05:58:16.530Z,4.79
2023-02-05T05:59:17.240Z,4.79
2023-02-05T06:00:17.984Z,4.79
2023-02-05T06:01:18.573Z,4.79
2023-02-05T06:02:19.369Z,4.80
2023-02-05T06:03:20.206Z,4.80
2023-02-05T06:04:21.091Z,4.80
2023-02-05T06:05:21.864Z,4.80
2023-02-05T06:06:22.446Z,4.79
2023-02-05T06:07:23.305Z,4.80
2023-02-05T06:08:23.437Z,4.80
2023-02-05T06:09:24.203Z,4.80
2023-02-05T06:10:24.891Z,4.80
2023-02-05T06:11:25.586Z,4.80
2023-02-05T06:12:26.489Z,4.81
2023-02-05T06:13:27.327Z,4.80
2023-02-05T06:14:27.618Z,4.80
2023-02-05T06:14:37.310Z,4.81
2023-02-05T06:15:37.773Z,4.81
2023-02-05T06:16:38.279Z,4.80
2023-02-05T06:17:39.087Z,4.80
2023-02-05T06:18:39.497Z,4.79
2023-02-05T06:19:40.345Z,4.78
2023-02-05T06:20:41.169Z,4.78
2023-02-05T06:21:41.920Z,4.77
2023-02-05T06:22:42.673Z,4.76
2023-02-05T06:23:43.514Z,4.75
2023-02-05T06:24:43.534Z,4.74
2023-02-05T06:25:44.313Z,4.74
2023-02-05T06:26:46.100Z,4.73
2023-02-05T06:27:45.652Z,4.72
2023-02-05T06:28:46.598Z,4.70
2023-02-05T06:29:46.713Z,4.69
2023-02-05T06:30:47.732Z,4.68
2023-02-05T06:31:48.144Z,4.67
2023-02-05T06:32:48.696Z,4.66
2023-02-05T06:33:49.526Z,4.65
2023-02-05T06:34:49.781Z,4.64
2023-02-05T06:35:50.744Z,4.63
2023-02-05T06:36:51.171Z,4.63
2023-02-05T06:37:51.742Z,4.62
2023-02-05T06:38:52.349Z,4.62
2023-02-05T06:39:52.847Z,4.62
2023-02-05T06:40:53.526Z,4.62
2023-02-05T06:41:53.940Z,4.62
2023-02-05T06:42:54.655Z,4.62
2023-02-05T06:43:55.243Z,4.62
2023-02-05T06:44:55.872Z,4.62
2023-02-05T06:45:56.368Z,4.62
2023-02-05T06:46:56.965Z,4.62
2023-02-05T06:47:57.938Z,4.63
2023-02-05T06:48:58.668Z,4.63
2023-02-05T06:49:07.906Z,4.74
2023-02-05T06:50:08.559Z,4.74
2023-02-05T06:51:09.346Z,4.74
2023-02-05T06:52:09.914Z,4.74
2023-02-05T06:53:11.922Z,4.74
2023-02-05T06:54:11.459Z,4.74
2023-02-05T06:55:12.193Z,4.74
2023-02-05T06:56:12.920Z,4.73
2023-02-05T06:57:13.813Z,4.73
2023-02-05T06:58:13.995Z,4.72
2023-02-05T06:59:14.681Z,4.72
2023-02-05T07:00:15.658Z,4.71
2023-02-05T07:01:15.933Z,4.71
2023-02-05T07:02:16.750Z,4.70
2023-02-05T07:03:17.581Z,4.70
2023-02-05T07:04:18.363Z,4.70
2023-02-05T07:05:19.077Z,4.70
2023-02-05T07:06:19.768Z,4.71
2023-02-05T07:07:20.464Z,4.72
2023-02-05T07:08:21.019Z,4.73
2023-02-05T07:09:21.904Z,4.74
2023-02-05T07:10:22.322Z,4.76
2023-02-05T07:11:23.092Z,4.77
2023-02-05T07:12:23.222Z,4.78
2023-02-05T07:13:23.840Z,4.80
2023-02-05T07:14:24.340Z,4.81
2023-02-05T07:15:24.750Z,4.82
2023-02-05T07:16:25.173Z,4.83
2023-02-05T07:17:25.711Z,4.84
2023-02-05T07:18:26.524Z,4.85
2023-02-05T07:19:27.181Z,4.86
2023-02-05T07:20:28.537Z,4.87
2023-02-05T07:21:27.870Z,4.87
2023-02-05T07:21:36.622Z,4.92
2023-02-05T07:22:36.983Z,4.92
2023-02-05T07:23:37.583Z,4.92
2023-02-05T07:24:38.098Z,4.92
2023-02-05T07:25:38.824Z,4.93
2023-02-05T07:26:39.648Z,4.93
2023-02-05T07:27:40.516Z,4.93
2023-02-05T07:28:41.198Z,4.93
2023-02-05T07:29:41.612Z,4.94
2023-02-05T07:30:42.318Z,4.94
2023-02-05T07:31:42.851Z,4.94
2023-02-05T07:32:43.556Z,4.94
2023-02-05T07:33:44.357Z,4.94
2023-02-05T07:34:45.119Z,4.94
2023-02-05T07:35:45.849Z,4.94
2023-02-05T07:36:46.710Z,4.94
2023-02-05T07:37:47.410Z,4.94
2023-02-05T07:38:47.479Z,4.94
2023-02-05T07:39:48.198Z,4.95
2023-02-05T07:40:48.808Z,4.95
2023-02-05T07:41:49.225Z,4.96
2023-02-05T07:42:50.158Z,4.96
2023-02-05T07:43:51.160Z,4.96
2023-02-05T07:44:52.083Z,4.96
2023-02-05T07:45:52.862Z,4.96
2023-02-05T07:46:53.664Z,4.97
2023-02-05T07:47:53.632Z,4.97
2023-02-05T07:48:53.817Z,4.97
2023-02-05T07:49:54.488Z,4.98
2023-02-05T07:50:54.800Z,4.99
2023-02-05T07:51:55.689Z,4.99
2023-02-05T07:52:56.591Z,5.00
2023-02-05T07:53:57.455Z,5.00
2023-02-05T07:54:07.198Z,5.10
2023-02-05T07:55:07.298Z,5.10
2023-02-05T07:56:08.172Z,5.10
2023-02-05T07:57:08.965Z,5.10
2023-02-05T07:58:08.934Z,5.10
2023-02-05T07:59:09.360Z,5.10
2023-02-05T08:00:09.353Z,5.10
2023-02-05T08:01:10.092Z,5.10
2023-02-05T08:02:11.076Z,5.10
2023-02-05T08:03:11.920Z,5.10
2023-02-05T08:04:12.875Z,5.10
2023-02-05T08:05:12.882Z,5.11
2023-02-05T08:06:13.005Z,5.11
2023-02-05T08:07:13.849Z,5.11
2023-02-05T08:08:14.059Z,5.11
2023-02-05T08:09:14.664Z,5.11
2023-02-05T08:10:15.354Z,5.12
2023-02-05T08:11:16.309Z,5.12
2023-02-05T08:12:16.662Z,5.13
2023-02-05T08:13:18.409Z,5.13
2023-02-05T08:14:17.927Z,5.14
2023-02-05T08:15:18.217Z,5.15
2023-02-05T08:16:18.858Z,5.15
2023-02-05T08:17:19.508Z,5.15
2023-02-05T08:18:19.528Z,5.16
2023-02-05T08:19:20.443Z,5.16
2023-02-05T08:20:21.164Z,5.16
2023-02-05T08:21:22.151Z,5.16
2023-02-05T08:22:22.713Z,5.16
2023-02-05T08:23:23.405Z,5.16
2023-02-05T08:24:24.065Z,5.16
2023-02-05T08:25:24.813Z,5.17
2023-02-05T08:26:24.930Z,5.17
2023-02-05T08:27:25.962Z,5.17
2023-02-05T08:27:34.672Z,5.23
2023-02-05T08:28:35.636Z,5.23
2023-02-05T08:29:36.586Z,5.23
2023-02-05T08:30:36.945Z,5.23
2023-02-05T08:31:37.080Z,5.23
2023-02-05T08:32:37.801Z,5.24
2023-02-05T08:33:38.766Z,5.24
2023-02-05T08:34:39.001Z,5.25
2023-02-05T08:35:39.600Z,5.25
2023-02-05T08:36:39.792Z,5.26
2023-02-05T08:37:40.041Z,5.27
2023-02-05T08:38:40.998Z,5.27
2023-02-05T08:39:41.535Z,5.28
2023-02-05T08:40:41.575Z,5.29
2023-02-05T08:41:41.843Z,5.30
2023-02-05T08:42:41.905Z,5.31
2023-02-05T08:43:42.490Z,5.32
2023-02-05T08:44:42.673Z,5.33
2023-02-05T08:45:43.447Z,5.35
2023-02-05T08:47:11.064Z,5.63
2023-02-05T08:48:17.107Z,5.63
2023-02-05T08:49:11.577Z,5.62
2023-02-05T08:50:12.146Z,5.62
2023-02-05T08:51:12.650Z,5.62
2023-02-05T08:52:13.608Z,5.62
2023-02-05T08:53:13.754Z,5.63
2023-02-05T08:54:14.271Z,5.63
2023-02-05T08:55:14.488Z,5.63
2023-02-05T08:56:14.860Z,5.63
2023-02-05T08:57:15.380Z,5.63
2023-02-05T08:58:16.249Z,5.64
2023-02-05T08:59:16.403Z,5.64
2023-02-05T09:00:16.427Z,5.64
2023-02-05T09:01:17.456Z,5.65
2023-02-05T09:02:17.362Z,5.65
2023-02-05T09:03:17.573Z,5.66
2023-02-05T09:04:18.153Z,5.66
2023-02-05T09:05:18.621Z,5.67
2023-02-05T09:06:19.167Z,5.67
2023-02-05T09:07:19.248Z,5.68
2023-02-05T09:08:19.416Z,5.68
2023-02-05T09:09:19.949Z,5.68
2023-02-05T09:10:20.191Z,5.68
2023-02-05T09:11:20.749Z,5.69
2023-02-05T09:12:20.970Z,5.69
2023-02-05T09:13:21.579Z,5.69
2023-02-05T09:14:23.575Z,5.70
2023-02-05T09:15:22.935Z,5.70
2023-02-05T09:16:23.824Z,5.71
2023-02-05T09:17:24.184Z,5.72
2023-02-05T09:18:24.688Z,5.72
2023-02-05T09:18:33.392Z,5.80
2023-02-05T09:19:34.112Z,5.80
2023-02-05T09:20:34.079Z,5.80
2023-02-05T09:21:34.568Z,5.79
2023-02-05T09:22:34.866Z,5.79
2023-02-05T09:23:34.748Z,5.78
2023-02-05T09:24:35.585Z,5.77
2023-02-05T09:25:36.261Z,5.77
2023-02-05T09:26:36.898Z,5.76
2023-02-05T09:27:37.572Z,5.75
2023-02-05T09:28:38.401Z,5.75
2023-02-05T09:29:38.414Z,5.74
2023-02-05T09:30:38.916Z,5.74
2023-02-05T09:31:39.840Z,5.73
2023-02-05T09:32:40.561Z,5.73
2023-02-05T09:33:40.708Z,5.72
2023-02-05T09:34:41.442Z,5.72
2023-02-05T09:35:42.341Z,5.72
2023-02-05T09:36:42.881Z,5.71
2023-02-05T09:37:43.520Z,5.71
2023-02-05T09:38:44.361Z,5.72
2023-02-05T09:40:18.941Z,5.72
2023-02-05T09:40:45.885Z,5.72
2023-02-05T09:41:00.403Z,5.71
2023-02-05T09:42:01.472Z,5.71
2023-02-05T09:43:00.819Z,5.71
2023-02-05T09:44:01.302Z,5.71
2023-02-05T09:45:33.773Z,5.76
2023-02-05T09:46:33.836Z,5.76
2023-02-05T09:47:34.464Z,5.76
2023-02-05T09:48:35.308Z,5.76
2023-02-05T09:49:35.888Z,5.76
2023-02-05T09:50:36.844Z,5.77
2023-02-05T09:51:36.864Z,5.77
2023-02-05T09:52:37.466Z,5.77
2023-02-05T09:53:38.093Z,5.77
2023-02-05T09:54:39.016Z,5.78
2023-02-05T09:55:39.584Z,5.78
2023-02-05T09:56:40.134Z,5.79
2023-02-05T09:57:40.101Z,5.79
2023-02-05T09:58:40.778Z,5.80
2023-02-05T09:59:40.952Z,5.80
2023-02-05T10:00:41.352Z,5.81
2023-02-05T10:01:41.440Z,5.81
2023-02-05T10:02:42.062Z,5.82
2023-02-05T10:03:42.494Z,5.82
2023-02-05T10:04:43.468Z,5.82
2023-02-05T10:05:43.647Z,5.83
2023-02-05T10:06:43.925Z,5.84
2023-02-05T10:07:44.429Z,5.84
2023-02-05T10:08:44.913Z,5.85
2023-02-05T10:09:45.408Z,5.86
2023-02-05T10:10:46.341Z,5.86
2023-02-05T10:11:46.829Z,5.86
2023-02-05T10:12:47.397Z,5.87
2023-02-05T10:13:48.298Z,5.87
2023-02-05T10:14:49.357Z,5.88
2023-02-05T10:15:49.301Z,5.88
2023-02-05T10:16:50.060Z,5.88
2023-02-05T10:17:01.827Z,5.97
2023-02-05T10:18:02.465Z,5.97
2023-02-05T10:19:03.203Z,5.97
2023-02-05T10:20:04.125Z,5.97
2023-02-05T10:21:04.140Z,5.97
2023-02-05T10:22:05.048Z,5.97
2023-02-05T10:23:05.577Z,5.97
2023-02-05T10:24:07.162Z,5.97
2023-02-05T10:25:06.957Z,5.97
2023-02-05T10:26:07.918Z,5.96
2023-02-05T10:27:07.982Z,5.96
2023-02-05T10:28:09.005Z,5.96
2023-02-05T10:29:09.726Z,5.96
2023-02-05T10:30:10.378Z,5.97
2023-02-05T10:31:11.294Z,5.97
2023-02-05T10:32:11.518Z,5.97
2023-02-05T10:33:12.373Z,5.97
2023-02-05T10:34:12.900Z,5.97
2023-02-05T10:35:13.447Z,5.97
2023-02-05T10:36:49.248Z,6.00
2023-02-05T10:37:48.775Z,6.00
2023-02-05T10:38:49.210Z,6.00
2023-02-05T10:39:49.894Z,6.00
2023-02-05T10:40:50.693Z,6.00
2023-02-05T10:41:51.112Z,6.00
2023-02-05T10:42:51.365Z,6.00
2023-02-05T10:43:51.529Z,6.00
2023-02-05T10:44:51.641Z,6.00
2023-02-05T10:45:52.444Z,6.00
2023-02-05T10:46:53.001Z,6.00
2023-02-05T10:48:39.438Z,6.07
2023-02-05T10:49:37.154Z,6.07
2023-02-05T10:50:37.618Z,6.08
2023-02-05T10:51:38.487Z,6.07
2023-02-05T10:52:41.120Z,6.07
2023-02-05T10:54:16.901Z,6.07
2023-02-05T10:54:43.099Z,6.07
2023-02-05T10:55:40.333Z,6.06
2023-02-05T10:56:40.463Z,6.05
2023-02-05T10:57:40.720Z,6.04
2023-02-05T10:58:41.721Z,6.04
2023-02-05T10:59:41.600Z,6.03
2023-02-05T11:00:42.251Z,6.03
2023-02-05T11:01:42.519Z,6.02
2023-02-05T11:02:43.355Z,6.02
2023-02-05T11:03:43.516Z,6.02
2023-02-05T11:04:44.254Z,6.02
2023-02-05T11:05:44.618Z,6.01
2023-02-05T11:06:44.826Z,6.01
2023-02-05T11:07:45.740Z,6.01
2023-02-05T11:08:45.995Z,6.01
2023-02-05T11:09:46.260Z,6.00
2023-02-05T11:10:46.416Z,6.00
2023-02-05T11:11:47.269Z,6.01
2023-02-05T11:12:47.435Z,6.01
2023-02-05T11:13:48.280Z,6.01
2023-02-05T11:14:05.118Z,6.11
2023-02-05T11:15:05.848Z,6.11
2023-02-05T11:16:06.083Z,6.11
2023-02-05T11:17:06.209Z,6.10
2023-02-05T11:18:09.309Z,6.09
2023-02-05T11:19:08.008Z,6.09
2023-02-05T11:20:14.491Z,6.08
2023-02-05T11:21:09.926Z,6.08
2023-02-05T11:22:10.784Z,6.09
2023-02-05T11:23:11.406Z,6.09
2023-02-05T11:24:12.259Z,6.09
2023-02-05T11:25:12.336Z,6.10
2023-02-05T11:26:12.586Z,6.10
2023-02-05T11:27:12.976Z,6.10
2023-02-05T11:28:13.860Z,6.10
2023-02-05T11:29:14.110Z,6.10
2023-02-05T11:30:14.594Z,6.11
2023-02-05T11:31:15.280Z,6.11
2023-02-05T11:32:15.351Z,6.12
2023-02-05T11:33:15.915Z,6.13
2023-02-05T11:34:15.993Z,6.14
2023-02-05T11:35:16.625Z,6.15
2023-02-05T11:36:17.438Z,6.16
2023-02-05T11:37:17.912Z,6.17
2023-02-05T11:38:19.269Z,6.17
2023-02-05T11:39:18.727Z,6.18
2023-02-05T11:39:29.693Z,6.23
2023-02-05T11:40:29.860Z,6.23
2023-02-05T11:41:30.333Z,6.23
2023-02-05T11:42:31.167Z,6.23
2023-02-05T11:43:32.143Z,6.24
2023-02-05T11:44:33.001Z,6.24
2023-02-05T11:45:33.738Z,6.24
2023-02-05T11:46:34.862Z,6.24
2023-02-05T11:47:34.773Z,6.24
2023-02-05T11:48:34.882Z,6.24
2023-02-05T11:49:34.997Z,6.25
2023-02-05T11:50:35.857Z,6.25
2023-02-05T11:51:36.533Z,6.26
2023-02-05T11:53:23.319Z,6.30
2023-02-05T11:54:24.369Z,6.30
2023-02-05T11:55:28.892Z,6.30
2023-02-05T11:56:25.562Z,6.30
2023-02-05T11:57:27.084Z,6.30
2023-02-05T11:58:34.820Z,6.31
2023-02-05T11:59:24.656Z,6.31
2023-02-05T12:00:24.509Z,6.32
2023-02-05T12:01:24.644Z,6.32
2023-02-05T12:02:25.511Z,6.32
2023-02-05T12:03:26.421Z,6.32
2023-02-05T12:04:27.900Z,6.32
2023-02-05T12:05:27.238Z,6.32
2023-02-05T12:06:27.956Z,6.33
2023-02-05T12:07:28.183Z,6.34
2023-02-05T12:08:29.069Z,6.34
2023-02-05T12:09:30.013Z,6.35
2023-02-05T12:09:49.257Z,6.54
2023-02-05T12:10:49.179Z,6.54
2023-02-05T12:11:50.130Z,6.54
2023-02-05T12:12:51.053Z,6.54
2023-02-05T12:13:51.914Z,6.54
2023-02-05T12:14:52.313Z,6.53
2023-02-05T12:15:55.989Z,6.53
2023-02-05T12:16:53.799Z,6.53
2023-02-05T12:17:54.781Z,6.52
2023-02-05T12:18:55.069Z,6.51
2023-02-05T12:19:55.599Z,6.51
2023-02-05T12:20:55.689Z,6.51
2023-02-05T12:21:09.774Z,6.46
2023-02-05T12:22:06.757Z,6.46
2023-02-05T12:23:09.818Z,6.46
2023-02-05T12:24:07.903Z,6.47
2023-02-05T12:25:08.633Z,6.47
2023-02-05T12:26:09.120Z,6.47
2023-02-05T12:27:09.916Z,6.47
2023-02-05T12:28:10.154Z,6.47
2023-02-05T12:29:10.772Z,6.47
2023-02-05T12:30:17.106Z,6.47
2023-02-05T12:31:11.796Z,6.47
2023-02-05T12:32:12.293Z,6.47
2023-02-05T12:33:12.470Z,6.47
2023-02-05T12:34:13.005Z,6.48
2023-02-05T12:35:13.010Z,6.48
2023-02-05T12:36:13.637Z,6.48
2023-02-05T12:37:14.656Z,6.48
2023-02-05T12:38:21.171Z,6.48
2023-02-05T12:39:16.964Z,6.49
2023-02-05T12:40:15.839Z,6.49
2023-02-05T12:41:16.185Z,6.50
2023-02-05T12:42:17.138Z,6.50
2023-02-05T12:43:18.043Z,6.49
2023-02-05T12:44:18.836Z,6.49
2023-02-05T12:45:20.797Z,6.49
2023-02-05T12:46:20.866Z,6.50
2023-02-05T12:46:33.357Z,6.54
2023-02-05T12:47:33.750Z,6.54
2023-02-05T12:48:34.658Z,6.54
2023-02-05T12:49:35.426Z,6.53
2023-02-05T12:50:36.677Z,6.53
2023-02-05T12:51:36.317Z,6.53
2023-02-05T12:52:36.623Z,6.53
2023-02-05T12:53:38.951Z,6.53
2023-02-05T12:54:38.172Z,6.52
2023-02-05T12:55:38.621Z,6.51
2023-02-05T12:56:38.844Z,6.50
2023-02-05T12:57:39.873Z,6.49
2023-02-05T12:59:48.543Z,6.39
2023-02-05T13:00:48.976Z,6.39
2023-02-05T13:01:48.970Z,6.39
2023-02-05T13:02:49.196Z,6.39
2023-02-05T13:03:49.617Z,6.40
2023-02-05T13:04:49.994Z,6.41
2023-02-05T13:05:50.107Z,6.41
2023-02-05T13:06:50.392Z,6.41
2023-02-05T13:07:51.137Z,6.41
2023-02-05T13:08:51.146Z,6.41
2023-02-05T13:09:51.856Z,6.41
2023-02-05T13:10:52.067Z,6.41
2023-02-05T13:11:52.887Z,6.41
2023-02-05T13:12:53.843Z,6.41
2023-02-05T13:13:56.803Z,6.41
2023-02-05T13:15:29.456Z,6.51
2023-02-05T13:17:03.250Z,6.47
2023-02-05T13:18:03.583Z,6.47
2023-02-05T13:19:04.092Z,6.47
2023-02-05T13:20:03.960Z,6.47
2023-02-05T13:21:04.748Z,6.47
2023-02-05T13:22:05.172Z,6.47
2023-02-05T13:23:05.400Z,6.48
2023-02-05T13:24:05.970Z,6.48
2023-02-05T13:25:06.776Z,6.48
2023-02-05T13:26:06.874Z,6.48
2023-02-05T13:27:08.815Z,6.49
2023-02-05T13:28:08.681Z,6.49
2023-02-05T13:29:10.520Z,6.49
2023-02-05T13:30:09.649Z,6.50
2023-02-05T13:31:09.810Z,6.50
2023-02-05T13:32:15.613Z,6.50
2023-02-05T13:33:10.951Z,6.50
2023-02-05T13:34:13.057Z,6.51
2023-02-05T13:34:22.864Z,6.57
2023-02-05T13:35:23.014Z,6.57
2023-02-05T13:36:23.481Z,6.56
2023-02-05T13:37:23.990Z,6.55
2023-02-05T13:38:24.453Z,6.54
2023-02-05T13:39:33.776Z,6.52
2023-02-05T13:40:25.189Z,6.51
2023-02-05T13:41:25.958Z,6.50
2023-02-05T13:42:26.235Z,6.50
2023-02-05T13:43:27.411Z,6.49
2023-02-05T13:44:27.407Z,6.48
2023-02-05T13:45:28.320Z,6.47
2023-02-05T13:46:29.192Z,6.47
2023-02-05T13:47:29.404Z,6.46
2023-02-05T13:48:31.338Z,6.45
2023-02-05T13:49:30.384Z,6.45
2023-02-05T13:50:30.832Z,6.44
2023-02-05T13:51:31.500Z,6.44
2023-02-05T13:52:31.718Z,6.43
2023-02-05T13:53:32.363Z,6.43
2023-02-05T13:54:33.003Z,6.42
2023-02-05T13:55:33.922Z,6.42
2023-02-05T13:56:34.412Z,6.41
2023-02-05T13:57:35.420Z,6.40
2023-02-05T13:57:49.607Z,6.28
2023-02-05T13:58:48.971Z,6.28
2023-02-05T13:59:49.536Z,6.27
2023-02-05T14:00:50.644Z,6.27
2023-02-05T14:01:50.232Z,6.26
2023-02-05T14:02:51.126Z,6.26
2023-02-05T14:03:51.897Z,6.26
2023-02-05T14:04:53.583Z,6.26
2023-02-05T14:05:52.652Z,6.25
2023-02-05T14:06:53.004Z,6.25
2023-02-05T14:07:53.376Z,6.25
2023-02-05T14:08:53.637Z,6.25
2023-02-05T14:09:54.228Z,6.24
2023-02-05T14:10:55.347Z,6.23
2023-02-05T14:11:55.317Z,6.22
2023-02-05T14:12:56.170Z,6.21
2023-02-05T14:13:56.473Z,6.20
2023-02-05T14:14:57.245Z,6.20
2023-02-05T14:15:57.679Z,6.20
2023-02-05T14:16:57.893Z,6.19
2023-02-05T14:17:58.066Z,6.19
2023-02-05T14:18:58.957Z,6.19
2023-02-05T14:19:59.094Z,6.19
2023-02-05T14:20:59.894Z,6.19
2023-02-05T14:22:00.742Z,6.19
2023-02-05T14:23:01.195Z,6.18
2023-02-05T14:24:01.131Z,6.18
2023-02-05T14:25:02.161Z,6.17
2023-02-05T14:26:03.476Z,6.17
2023-02-05T14:26:15.999Z,6.19
2023-02-05T14:27:16.611Z,6.19
2023-02-05T14:28:17.496Z,6.19
2023-02-05T14:29:18.043Z,6.18
2023-02-05T14:30:18.893Z,6.17
2023-02-05T14:31:19.804Z,6.17
2023-02-05T14:32:20.442Z,6.17
2023-02-05T14:33:20.876Z,6.16
2023-02-05T14:34:22.536Z,6.16
2023-02-05T14:35:21.886Z,6.17
2023-02-05T14:36:22.535Z,6.17
2023-02-05T14:37:23.222Z,6.17
2023-02-05T14:38:23.925Z,6.18
2023-02-05T14:39:24.111Z,6.18
2023-02-05T14:40:24.495Z,6.18
2023-02-05T14:41:25.214Z,6.18
2023-02-05T14:42:25.789Z,6.17
2023-02-05T14:43:25.926Z,6.17
2023-02-05T14:44:26.819Z,6.17
2023-02-05T14:45:27.380Z,6.17
2023-02-05T14:46:28.211Z,6.17
2023-02-05T14:47:30.001Z,6.17
2023-02-05T14:48:30.454Z,6.16